Time;durP1;ratioP1;P1;durP2;ratioP2;P2;SDS_P1;SDS_P2;PMS_P1;PMS_P2;Temp;Humidity;BMP_temperature;BMP_pressure;BME280_temperature;BME280_humidity;BME280_pressure;Samples;Min_cycle;Max_cycle;Signal;HPM_P1;HPM_P2
2024/02/07 00:00:08;;;;;;;8.70;4.80;;;;;;;7.59;64.79;95092.92;106609;1275;25639;-76
2024/02/07 00:02:59;;;;;;;9.70;4.70;;;;;;;7.51;65.01;95094.27;106727;1275;22530;-76
2024/02/07 00:05:28;;;;;;;6.90;4.90;;;;;;;7.44;65.17;95094.91;106619;1275;24216;-76
2024/02/07 00:07:57;;;;;;;7.70;4.00;;;;;;;7.37;65.32;95093.26;106659;1275;22516;-76
2024/02/07 00:10:25;;;;;;;10.30;4.60;;;;;;;7.30;65.49;95094.56;106711;1275;22587;-76
2024/02/07 00:12:53;;;;;;;8.10;4.80;;;;;;;7.38;65.30;95093.06;106889;1275;22542;-76
2024/02/07 00:15:21;;;;;;;9.30;4.50;;;;;;;7.39;65.16;95084.65;106688;1275;22524;-76
2024/02/07 00:17:50;;;;;;;9.60;5.20;;;;;;;7.29;65.22;95084.62;106690;1275;24076;-76
2024/02/07 00:20:18;;;;;;;9.50;4.70;;;;;;;7.22;65.45;95092.05;106664;1275;22530;-76
2024/02/07 00:22:47;;;;;;;10.90;5.10;;;;;;;7.20;65.55;95098.73;106698;1275;22598;-76
2024/02/07 00:25:15;;;;;;;7.50;4.50;;;;;;;7.19;65.62;95103.11;106733;1275;25307;-76
2024/02/07 00:27:43;;;;;;;9.60;4.70;;;;;;;7.20;65.38;95099.24;106684;1275;25354;-76
2024/02/07 00:30:12;;;;;;;8.20;3.70;;;;;;;7.22;65.36;95096.95;106711;1275;22585;-78
2024/02/07 00:32:55;;;;;;;7.20;4.60;;;;;;;7.28;65.25;95096.18;106691;1275;22535;-76
2024/02/07 00:35:24;;;;;;;6.80;3.50;;;;;;;7.29;65.04;95088.46;106739;1275;25393;-76
2024/02/07 00:37:52;;;;;;;6.90;3.70;;;;;;;7.28;64.96;95090.58;107130;1274;22548;-76
2024/02/07 00:40:21;;;;;;;6.20;4.00;;;;;;;7.28;65.04;95095.13;106848;1275;24231;-76
2024/02/07 00:42:51;;;;;;;8.50;4.60;;;;;;;7.30;65.02;95092.98;106685;1275;22539;-76
2024/02/07 00:45:19;;;;;;;10.20;4.60;;;;;;;7.27;65.20;95098.98;106746;1275;24303;-76
2024/02/07 00:47:47;;;;;;;9.80;4.70;;;;;;;7.23;65.39;95101.32;106973;1275;22527;-76
2024/02/07 00:50:16;;;;;;;8.30;4.00;;;;;;;7.14;65.50;95105.81;106738;1275;22665;-75
2024/02/07 00:52:44;;;;;;;11.70;4.70;;;;;;;7.07;65.82;95105.37;106699;1260;25383;-76
2024/02/07 00:55:12;;;;;;;9.20;4.60;;;;;;;7.04;66.02;95106.98;106660;1275;24208;-76
2024/02/07 00:57:41;;;;;;;6.50;4.10;;;;;;;7.02;66.30;95103.68;106670;1275;24221;-76
2024/02/07 01:00:14;;;;;;;8.10;4.00;;;;;;;7.02;66.13;95103.50;106737;1275;22967;-76
2024/02/07 01:02:43;;;;;;;10.30;5.00;;;;;;;7.08;65.72;95106.41;106936;1275;22548;-76
2024/02/07 01:05:11;;;;;;;8.60;3.90;;;;;;;7.17;65.34;95093.52;106642;1275;22619;-76
2024/02/07 01:07:40;;;;;;;8.60;4.20;;;;;;;7.22;65.09;95094.69;106784;1275;26533;-76
2024/02/07 01:10:10;;;;;;;8.60;4.60;;;;;;;7.26;64.78;95091.65;106795;1275;24729;-76
2024/02/07 01:12:38;;;;;;;8.80;4.60;;;;;;;7.25;64.52;95092.54;106700;1259;24348;-76
2024/02/07 01:15:08;;;;;;;7.40;4.40;;;;;;;7.23;64.39;95084.71;106701;1275;22519;-76
2024/02/07 01:17:37;;;;;;;11.00;4.10;;;;;;;7.22;64.36;95071.23;106716;1275;26573;-76
2024/02/07 01:20:09;;;;;;;8.10;4.40;;;;;;;7.18;64.30;95066.56;106751;1262;22528;-76
2024/02/07 01:22:39;;;;;;;8.90;4.70;;;;;;;7.14;64.48;95066.63;106728;1275;24318;-76
2024/02/07 01:25:08;;;;;;;8.40;4.80;;;;;;;7.11;64.42;95060.73;106689;1275;25341;-76
2024/02/07 01:27:37;;;;;;;7.10;4.20;;;;;;;7.07;64.55;95061.98;106768;1275;22530;-76
2024/02/07 01:30:12;;;;;;;9.30;4.60;;;;;;;7.04;64.68;95051.55;106770;1275;22527;-76
2024/02/07 01:32:41;;;;;;;7.60;4.70;;;;;;;7.05;64.54;95047.52;106610;1275;24519;-76
2024/02/07 01:35:11;;;;;;;5.40;4.30;;;;;;;7.05;64.57;95044.53;106855;1275;22648;-76
2024/02/07 01:37:40;;;;;;;7.80;4.10;;;;;;;7.03;64.59;95046.31;106898;1275;23123;-75
2024/02/07 01:40:12;;;;;;;9.50;4.50;;;;;;;7.00;64.50;95037.98;106661;1275;22798;-76
2024/02/07 01:42:41;;;;;;;6.80;3.30;;;;;;;6.98;64.64;95034.50;106767;1275;22524;-76
2024/02/07 01:45:30;;;;;;;7.30;3.70;;;;;;;6.92;64.84;95029.67;106703;1275;22527;-76
2024/02/07 01:47:59;;;;;;;6.30;4.20;;;;;;;6.90;64.86;95028.31;106679;1275;25250;-76
2024/02/07 01:50:29;;;;;;;9.20;5.00;;;;;;;6.90;64.96;95024.80;106767;1275;22530;-76
2024/02/07 01:53:02;;;;;;;7.20;4.10;;;;;;;6.92;64.87;95020.23;106742;1268;22654;-76
2024/02/07 01:55:31;;;;;;;7.60;4.40;;;;;;;6.90;64.80;95018.86;106691;1275;24255;-76
2024/02/07 01:58:04;;;;;;;7.30;4.10;;;;;;;6.87;64.69;95024.33;106679;1275;22591;-76
2024/02/07 02:00:32;;;;;;;6.10;4.10;;;;;;;6.79;64.93;95029.15;106739;1275;22780;-76
2024/02/07 02:03:03;;;;;;;12.20;5.80;;;;;;;6.65;65.24;95027.58;106746;1274;22531;-76
2024/02/07 02:05:32;;;;;;;8.30;4.90;;;;;;;6.56;65.56;95032.95;106697;1275;22528;-76
2024/02/07 02:08:04;;;;;;;10.70;4.80;;;;;;;6.60;65.96;95029.92;106829;1275;25531;-75
2024/02/07 02:10:32;;;;;;;11.40;5.10;;;;;;;6.65;65.77;95024.44;106719;1275;22523;-76
2024/02/07 02:13:02;;;;;;;8.00;4.90;;;;;;;6.65;65.90;95020.25;106657;1275;24063;-77
2024/02/07 02:15:31;;;;;;;10.70;4.60;;;;;;;6.72;65.70;95022.77;106789;1275;22521;-77
2024/02/07 02:17:59;;;;;;;6.80;4.40;;;;;;;6.71;65.66;95021.21;106710;1275;24056;-76
2024/02/07 02:20:28;;;;;;;12.00;5.40;;;;;;;6.70;65.77;95022.63;106670;1267;24066;-76
2024/02/07 02:23:03;;;;;;;11.60;4.40;;;;;;;6.71;65.72;95021.04;106723;1263;22605;-76
2024/02/07 02:25:37;;;;;;;10.40;4.20;;;;;;;6.78;65.63;95023.04;106738;1275;25439;-76
2024/02/07 02:28:31;;;;;;;5.80;3.90;;;;;;;6.78;65.63;95018.51;106758;1265;24299;-76
2024/02/07 02:31:03;;;;;;;7.20;4.60;;;;;;;6.71;65.69;95019.80;107107;1275;22891;-76
2024/02/07 02:33:35;;;;;;;8.20;3.80;;;;;;;6.67;65.88;95014.45;106686;1275;24232;-76
2024/02/07 02:36:05;;;;;;;6.20;3.60;;;;;;;6.67;66.14;95009.73;106714;1275;25796;-76
2024/02/07 02:38:37;;;;;;;7.00;3.90;;;;;;;6.75;65.98;95008.05;106796;1275;24222;-76
2024/02/07 02:41:08;;;;;;;7.10;4.60;;;;;;;6.82;65.73;95006.39;106633;1275;23140;-76
2024/02/07 02:43:37;;;;;;;8.60;5.50;;;;;;;6.83;65.66;95013.72;106707;1275;22525;-76
2024/02/07 02:46:10;;;;;;;10.20;4.30;;;;;;;6.87;65.74;95005.96;106828;1275;24257;-78
2024/02/07 02:48:39;;;;;;;;;;;;;;;6.87;65.64;95010.87;106714;1275;22779;-77
2024/02/07 02:51:08;;;;;;;8.50;4.70;;;;;;;6.84;65.68;95005.32;106745;1275;24483;-77
2024/02/07 02:53:37;;;;;;;8.80;4.10;;;;;;;6.80;65.71;95011.66;106793;1274;24230;-77
2024/02/07 02:56:06;;;;;;;9.10;4.60;;;;;;;6.73;65.89;95011.94;106722;1275;22644;-77
2024/02/07 02:58:35;;;;;;;6.10;3.50;;;;;;;6.67;66.02;95010.77;107015;1275;22568;-77
2024/02/07 03:01:11;;;;;;;9.60;4.60;;;;;;;6.65;66.15;95017.28;107044;1275;24766;-77
2024/02/07 03:03:44;;;;;;;9.50;3.90;;;;;;;6.63;66.07;95014.34;106836;1275;22569;-77
2024/02/07 03:06:28;;;;;;;7.00;4.40;;;;;;;6.57;66.32;95011.77;106769;1275;24491;-76
2024/02/07 03:09:19;;;;;;;8.60;4.30;;;;;;;6.51;66.56;95012.39;106730;1275;22556;-76
2024/02/07 03:11:48;;;;;;;7.40;4.10;;;;;;;6.46;66.45;95016.28;106721;1267;22801;-76
2024/02/07 03:14:17;;;;;;;11.40;4.20;;;;;;;6.44;66.57;95014.73;106797;1275;22943;-76
2024/02/07 03:16:46;;;;;;;12.50;4.80;;;;;;;6.40;66.76;95017.74;106709;1275;25421;-76
2024/02/07 03:19:14;;;;;;;10.10;4.50;;;;;;;6.35;66.84;95015.88;106672;1274;22515;-76
2024/02/07 03:21:44;;;;;;;9.00;4.40;;;;;;;6.32;66.93;95013.83;106687;1275;23344;-76
2024/02/07 03:24:13;;;;;;;7.30;4.30;;;;;;;6.34;66.97;95011.36;106802;1275;22743;-76
2024/02/07 03:26:44;;;;;;;9.00;4.30;;;;;;;6.28;66.81;95023.48;106289;1264;677223;-76
2024/02/07 03:29:13;;;;;;;6.50;4.00;;;;;;;6.22;67.11;95026.69;106664;1275;22802;-77
2024/02/07 03:31:43;;;;;;;8.70;4.60;;;;;;;6.12;67.30;95020.52;106733;1275;22591;-76
2024/02/07 03:34:12;;;;;;;8.40;3.80;;;;;;;6.02;67.62;95023.06;107078;1275;24277;-76
2024/02/07 03:36:41;;;;;;;7.90;4.60;;;;;;;5.97;67.38;95022.59;106810;1275;22800;-77
2024/02/07 03:39:09;;;;;;;6.00;4.00;;;;;;;5.91;67.76;95015.45;106674;1275;22582;-76
2024/02/07 03:41:39;;;;;;;6.40;3.80;;;;;;;5.90;67.78;95010.74;106906;1275;24375;-76
2024/02/07 03:44:12;;;;;;;8.50;4.40;;;;;;;5.86;67.88;95011.48;106725;1275;22547;-76
2024/02/07 03:46:40;;;;;;;10.00;4.60;;;;;;;5.86;67.93;95006.77;106680;1263;23908;-76
2024/02/07 03:49:09;;;;;;;7.80;4.20;;;;;;;5.84;68.36;95004.70;106776;1275;23878;-76
2024/02/07 03:51:38;;;;;;;8.20;3.70;;;;;;;5.87;68.13;95012.17;106685;1275;22811;-77
2024/02/07 03:54:08;;;;;;;9.00;4.20;;;;;;;5.94;68.04;95002.70;106681;1275;24294;-76
2024/02/07 03:56:37;;;;;;;8.20;3.40;;;;;;;6.07;67.71;95005.89;106762;1275;22643;-76
2024/02/07 03:59:06;;;;;;;7.00;3.70;;;;;;;6.15;67.39;95004.94;106843;1275;22523;-76
2024/02/07 04:01:36;;;;;;;11.40;4.30;;;;;;;6.19;67.14;95006.45;106741;1275;24511;-77
2024/02/07 04:04:05;;;;;;;8.20;3.80;;;;;;;6.22;67.01;95007.31;106749;1275;24396;-77
2024/02/07 04:06:34;;;;;;;7.60;3.40;;;;;;;6.31;66.66;95004.75;106734;1275;25650;-76
2024/02/07 04:09:05;;;;;;;5.90;3.80;;;;;;;6.39;66.30;94996.27;106746;1275;24253;-76
2024/02/07 05:17:25;;;;;;;22.10;13.10;;;;;;;5.92;67.24;95028.02;106673;1275;25344;-76
2024/02/07 05:19:53;;;;;;;12.50;9.20;;;;;;;5.90;67.25;95026.45;106697;1275;25463;-76
2024/02/07 05:22:21;;;;;;;9.30;5.10;;;;;;;5.90;67.29;95028.38;106643;1275;22775;-76
2024/02/07 05:24:54;;;;;;;17.60;9.30;;;;;;;5.91;67.38;95027.33;106672;1275;22539;-76
2024/02/07 05:27:22;;;;;;;11.40;6.90;;;;;;;5.89;67.34;95022.64;106668;1275;22635;-76
2024/02/07 05:29:50;;;;;;;12.30;4.90;;;;;;;5.83;67.34;95022.16;106690;1275;24452;-76
2024/02/07 05:32:19;;;;;;;11.30;5.30;;;;;;;5.80;67.37;95015.91;106658;1275;22635;-77
2024/02/07 05:34:47;;;;;;;6.80;4.40;;;;;;;5.77;67.71;95012.27;106661;1275;22544;-76
2024/02/07 05:37:15;;;;;;;8.80;5.20;;;;;;;5.82;67.66;95014.30;106619;1275;22527;-76
2024/02/07 05:39:44;;;;;;;6.30;3.40;;;;;;;5.86;67.64;95016.38;106672;1275;25364;-76
2024/02/07 05:42:12;;;;;;;13.60;10.40;;;;;;;5.87;67.49;95010.61;106704;1275;24260;-76
2024/02/07 05:44:40;;;;;;;6.90;3.70;;;;;;;5.88;67.67;95006.92;106652;1275;25496;-76
2024/02/07 05:47:08;;;;;;;6.30;4.20;;;;;;;5.90;67.53;94999.23;106757;1275;25353;-76
2024/02/07 05:49:36;;;;;;;8.00;5.70;;;;;;;5.89;67.43;95002.55;106693;1275;22530;-76
2024/02/07 05:52:04;;;;;;;17.30;11.70;;;;;;;5.91;67.49;94999.58;106633;1275;24501;-76
2024/02/07 05:54:33;;;;;;;14.80;10.30;;;;;;;5.89;67.47;95001.86;106661;1275;22577;-76
2024/02/07 05:57:02;;;;;;;9.60;4.80;;;;;;;5.89;67.63;95010.42;106751;1275;22588;-75
2024/02/07 05:59:30;;;;;;;14.30;6.20;;;;;;;5.90;67.69;95012.49;106631;1275;22522;-76
2024/02/07 06:01:58;;;;;;;10.70;5.60;;;;;;;5.95;67.56;95019.27;106675;1275;25488;-75
2024/02/07 06:04:27;;;;;;;11.00;5.00;;;;;;;5.97;67.44;95016.83;106803;1275;22516;-75
2024/02/07 06:06:56;;;;;;;9.50;3.70;;;;;;;5.94;67.63;95018.77;106776;1254;24283;-74
2024/02/07 06:09:24;;;;;;;7.80;4.00;;;;;;;5.98;67.55;95019.43;106748;1275;25295;-74
2024/02/07 06:11:53;;;;;;;10.70;5.10;;;;;;;6.04;67.34;95018.84;106622;1261;24220;-75
2024/02/07 06:14:21;;;;;;;11.10;4.20;;;;;;;6.09;67.20;95022.64;106689;1275;22529;-75
2024/02/07 06:16:49;;;;;;;7.30;3.80;;;;;;;6.11;67.14;95026.45;106757;1275;22520;-77
2024/02/07 06:19:18;;;;;;;7.30;4.00;;;;;;;6.16;67.08;95028.67;106700;1275;22530;-76
2024/02/07 06:21:49;;;;;;;9.70;4.70;;;;;;;6.20;67.17;95032.65;106722;1275;22530;-76
2024/02/07 06:24:17;;;;;;;12.80;7.40;;;;;;;6.22;67.06;95034.55;106660;1275;25379;-76
2024/02/07 06:26:46;;;;;;;6.40;4.20;;;;;;;6.32;66.70;95030.41;106696;1275;22748;-76
2024/02/07 06:29:14;;;;;;;8.50;4.80;;;;;;;6.42;66.38;95027.33;106640;1275;22784;-78
2024/02/07 06:31:42;;;;;;;10.80;4.60;;;;;;;6.46;66.32;95023.27;106676;1275;23285;-76
2024/02/07 06:34:10;;;;;;;8.30;4.90;;;;;;;6.47;66.27;95024.30;106629;1275;25433;-76
2024/02/07 06:36:39;;;;;;;6.40;4.60;;;;;;;6.49;65.92;95020.09;106648;1275;24278;-77
2024/02/07 06:39:07;;;;;;;12.40;6.30;;;;;;;6.54;65.77;95019.33;106695;1275;22654;-78
2024/02/07 06:41:35;;;;;;;119.70;43.30;;;;;;;6.56;65.67;95024.55;106852;1275;22526;-76
2024/02/07 06:44:04;;;;;;;72.30;32.40;;;;;;;6.60;65.59;95024.15;106702;1262;22526;-80
2024/02/07 06:46:32;;;;;;;27.20;14.00;;;;;;;6.64;65.53;95022.36;106795;1275;22612;-76
2024/02/07 06:49:00;;;;;;;165.00;76.90;;;;;;;6.63;65.62;95021.49;107019;1275;22523;-76
2024/02/07 06:51:29;;;;;;;24.70;13.00;;;;;;;6.63;65.55;95020.98;107028;1275;22529;-77
2024/02/07 06:53:57;;;;;;;16.80;8.10;;;;;;;6.68;65.64;95016.89;106748;1275;22586;-77
2024/02/07 06:56:26;;;;;;;9.00;5.60;;;;;;;6.74;65.62;95012.27;106682;1275;22531;-78
2024/02/07 06:58:54;;;;;;;9.00;4.30;;;;;;;6.80;65.35;95007.46;106785;1275;22524;-78
2024/02/07 07:01:22;;;;;;;8.00;4.30;;;;;;;6.85;65.32;95011.23;106719;1275;22537;-78
2024/02/07 07:03:52;;;;;;;10.10;4.40;;;;;;;6.89;65.01;95011.18;106708;1275;22526;-79
2024/02/07 07:06:20;;;;;;;31.50;17.90;;;;;;;6.97;64.88;95008.98;106733;1275;22536;-78
2024/02/07 07:08:50;;;;;;;16.80;8.90;;;;;;;7.07;64.51;95012.70;106880;1265;24276;-78
2024/02/07 07:11:18;;;;;;;8.60;4.50;;;;;;;7.15;64.05;95011.68;106808;1275;22580;-77
2024/02/07 07:13:46;;;;;;;5.90;3.50;;;;;;;7.28;63.80;95010.27;106703;1275;23769;-77
2024/02/07 07:16:15;;;;;;;6.10;3.50;;;;;;;7.41;63.61;95003.95;106606;1275;24041;-76
2024/02/07 07:18:43;;;;;;;6.90;3.60;;;;;;;7.52;63.21;95007.98;106679;1275;22798;-78
2024/02/07 07:21:12;;;;;;;5.10;3.30;;;;;;;7.64;63.14;95005.17;106985;1275;25259;-77
2024/02/07 07:23:40;;;;;;;5.40;3.80;;;;;;;7.74;62.88;95004.29;106964;1275;22510;-79
2024/02/07 07:26:08;;;;;;;7.70;3.90;;;;;;;7.86;62.72;95002.34;106943;1275;23447;-78
2024/02/07 07:28:36;;;;;;;10.20;4.10;;;;;;;7.89;61.51;94997.91;106869;1275;22639;-76
2024/02/07 07:31:05;;;;;;;8.90;4.50;;;;;;;7.93;61.83;94997.30;106663;1275;22526;-77
2024/02/07 07:33:33;;;;;;;8.10;3.70;;;;;;;8.01;61.95;94996.98;106709;1275;22538;-76
2024/02/07 07:36:02;;;;;;;7.80;4.50;;;;;;;8.14;61.75;95001.45;106862;1275;22524;-75
2024/02/07 07:38:30;;;;;;;7.30;4.30;;;;;;;8.28;61.74;94990.34;106784;1275;22542;-76
2024/02/07 07:40:58;;;;;;;10.60;4.50;;;;;;;8.39;60.96;94984.54;106814;1275;25439;-77
2024/02/07 07:43:26;;;;;;;8.50;4.40;;;;;;;8.45;61.04;94981.45;106622;1275;25501;-77
2024/02/07 07:45:55;;;;;;;7.50;4.30;;;;;;;8.49;60.68;94983.48;106680;1274;22527;-77
2024/02/07 07:48:23;;;;;;;15.40;6.20;;;;;;;8.57;60.91;94980.15;106682;1275;22523;-78
2024/02/07 07:50:53;;;;;;;10.90;4.70;;;;;;;8.63;60.72;94971.45;106747;1275;22527;-77
2024/02/07 07:53:22;;;;;;;6.70;4.50;;;;;;;8.69;60.84;94966.42;106685;1275;25438;-76
2024/02/07 07:55:50;;;;;;;8.60;3.80;;;;;;;8.70;60.38;94963.57;106627;1275;24546;-77
2024/02/07 07:58:18;;;;;;;12.20;4.90;;;;;;;8.70;60.37;94959.04;106628;1275;24373;-76
2024/02/07 08:00:46;;;;;;;10.60;4.80;;;;;;;8.74;60.42;94959.47;106741;1275;24360;-77
2024/02/07 08:03:19;;;;;;;9.60;5.00;;;;;;;8.77;59.72;94959.20;106668;1275;22652;-76
2024/02/07 08:05:47;;;;;;;8.50;4.90;;;;;;;8.80;59.95;94955.80;106675;1264;25326;-78
2024/02/07 08:08:17;;;;;;;8.10;4.60;;;;;;;8.85;59.70;94951.85;106654;1275;25552;-78
2024/02/07 08:10:46;;;;;;;9.70;4.90;;;;;;;8.91;59.66;94942.61;106693;1275;22520;-76
2024/02/07 08:13:15;;;;;;;9.40;4.80;;;;;;;8.95;59.26;94943.58;106628;1274;22523;-75
2024/02/07 08:15:43;;;;;;;8.10;4.60;;;;;;;8.99;59.34;94946.11;106775;1275;25347;-76
2024/02/07 08:18:12;;;;;;;8.90;5.20;;;;;;;9.07;59.09;94936.62;106774;1275;22653;-76
2024/02/07 08:20:40;;;;;;;9.90;5.20;;;;;;;9.18;60.18;94937.60;106803;1275;22942;-76
2024/02/07 08:23:09;;;;;;;8.10;5.40;;;;;;;9.35;61.33;94944.73;106830;1265;22524;-76
2024/02/07 08:25:38;;;;;;;10.30;5.90;;;;;;;9.60;62.63;94939.38;107115;1275;22612;-77
2024/02/07 08:28:06;;;;;;;12.20;6.00;;;;;;;9.74;60.86;94936.55;106724;1275;24341;-76
2024/02/07 08:30:34;;;;;;;13.40;6.10;;;;;;;9.59;57.66;94936.24;106639;1275;22639;-76
2024/02/07 08:33:03;;;;;;;9.30;5.40;;;;;;;9.48;57.99;94932.47;106945;1274;22533;-76
2024/02/07 08:35:33;;;;;;;13.50;6.80;;;;;;;9.42;57.62;94930.88;107013;1275;25359;-74
2024/02/07 08:38:02;;;;;;;11.00;6.00;;;;;;;9.40;57.65;94927.94;107041;1275;25551;-75
2024/02/07 08:40:32;;;;;;;12.10;6.90;;;;;;;9.42;58.26;94920.33;107009;1275;25308;-75
2024/02/07 08:43:00;;;;;;;14.60;7.30;;;;;;;9.43;57.58;94922.60;107024;1275;22520;-76
2024/02/07 08:45:29;;;;;;;12.50;6.70;;;;;;;9.48;57.52;94923.35;107052;1275;22526;-76
2024/02/07 08:47:57;;;;;;;14.30;6.70;;;;;;;9.51;57.15;94927.48;106749;1275;22740;-76
2024/02/07 08:50:25;;;;;;;9.90;6.20;;;;;;;9.53;57.18;94927.27;106627;1274;24243;-76
2024/02/07 08:52:53;;;;;;;15.20;6.70;;;;;;;9.58;56.49;94929.77;106588;1275;24411;-76
2024/02/07 08:55:22;;;;;;;13.00;7.60;;;;;;;9.63;56.12;94942.80;106652;1274;25417;-75
2024/02/07 08:57:50;;;;;;;11.80;7.70;;;;;;;9.61;55.61;94943.20;106668;1274;22539;-75
2024/02/07 09:00:18;;;;;;;13.90;7.90;;;;;;;9.59;56.09;94964.69;106640;1264;22527;-73
2024/02/07 09:02:49;;;;;;;14.00;7.70;;;;;;;9.53;56.73;94964.67;106692;1275;25236;-75
2024/02/07 09:05:19;;;;;;;16.20;9.10;;;;;;;9.49;57.14;94968.63;106672;1275;22530;-75
2024/02/07 09:07:49;;;;;;;15.30;8.90;;;;;;;9.51;57.70;94970.85;106610;1275;22523;-75
2024/02/07 09:10:17;;;;;;;15.00;8.80;;;;;;;9.58;57.30;94968.23;106710;1275;24282;-74
2024/02/07 09:12:46;;;;;;;15.00;9.50;;;;;;;9.62;57.64;94959.54;106728;1275;22657;-76
2024/02/07 09:15:14;;;;;;;18.70;10.70;;;;;;;9.73;58.05;94961.35;106634;1275;22530;-76
2024/02/07 09:17:42;;;;;;;17.00;9.50;;;;;;;9.87;57.93;94960.98;106743;1275;24273;-77
2024/02/07 09:20:12;;;;;;;17.80;11.10;;;;;;;9.98;57.57;94962.29;106899;1275;22527;-77
2024/02/07 09:22:41;;;;;;;51.60;26.00;;;;;;;10.00;57.18;94964.34;106676;1275;24179;-77
2024/02/07 09:25:10;;;;;;;25.40;15.00;;;;;;;10.05;57.40;94967.92;106840;1275;22574;-78
2024/02/07 09:27:41;;;;;;;18.90;11.60;;;;;;;10.15;57.27;94965.34;107213;1269;24233;-77
2024/02/07 09:30:10;;;;;;;30.80;20.20;;;;;;;10.13;57.07;94961.88;107144;1275;22511;-77
2024/02/07 09:32:42;;;;;;;20.80;12.10;;;;;;;10.26;56.89;94968.56;106865;1275;22535;-76
2024/02/07 09:35:11;;;;;;;18.20;11.20;;;;;;;10.35;56.59;94962.73;106886;1275;25432;-79
2024/02/07 09:37:41;;;;;;;18.70;10.80;;;;;;;10.33;56.89;94963.48;107121;1265;22542;-82
2024/02/07 09:40:11;;;;;;;22.10;11.70;;;;;;;10.27;56.89;94974.71;106898;1275;22567;-79
2024/02/07 09:42:43;;;;;;;18.70;10.60;;;;;;;10.29;57.24;94965.87;106949;1275;25355;-77
2024/02/07 09:45:15;;;;;;;21.20;11.40;;;;;;;10.27;57.48;94958.19;106705;1274;25431;-78
2024/02/07 09:48:30;;;;;;;20.10;10.70;;;;;;;10.22;58.25;94958.83;106785;1275;22613;-79
2024/02/07 09:50:59;;;;;;;20.40;12.80;;;;;;;10.35;58.04;94962.20;106630;1275;24386;-79
2024/02/07 09:53:30;;;;;;;17.80;10.80;;;;;;;10.33;58.02;94960.48;106723;1275;22641;-76
2024/02/07 09:56:03;;;;;;;22.30;12.80;;;;;;;10.25;58.04;94956.99;106808;1275;22544;-80
2024/02/07 09:58:32;;;;;;;16.00;10.10;;;;;;;10.21;58.17;94954.63;106768;1275;22619;-79
2024/02/07 10:01:01;;;;;;;19.70;11.70;;;;;;;10.11;58.34;94955.77;106816;1275;22642;-76
2024/02/07 10:03:33;;;;;;;18.30;9.40;;;;;;;10.08;58.34;94956.04;106696;1275;25444;-78
2024/02/07 10:06:03;;;;;;;21.10;10.40;;;;;;;9.93;58.60;94960.64;106805;1275;25430;-78
2024/02/07 10:08:32;;;;;;;16.50;9.60;;;;;;;9.89;58.98;94955.66;106985;1271;23005;-78
2024/02/07 10:11:02;;;;;;;17.00;9.90;;;;;;;9.83;59.07;94951.78;106734;1275;22535;-77
2024/02/07 10:13:31;;;;;;;23.20;13.40;;;;;;;9.75;59.34;94955.66;106805;1275;22712;-78
2024/02/07 10:16:00;;;;;;;20.40;10.70;;;;;;;9.60;59.80;94949.05;106762;1275;22527;-78
2024/02/07 10:18:31;;;;;;;31.20;18.10;;;;;;;9.46;60.26;94955.70;106841;1275;25313;-79
2024/02/07 10:21:02;;;;;;;13.50;8.20;;;;;;;9.32;60.63;94951.29;107047;1260;23916;-79
2024/02/07 10:23:31;;;;;;;20.30;11.90;;;;;;;9.19;61.14;94944.41;106716;1275;24225;-78
2024/02/07 10:26:00;;;;;;;27.20;13.80;;;;;;;9.08;61.67;94942.73;106789;1275;22679;-80
2024/02/07 10:28:30;;;;;;;18.10;9.50;;;;;;;9.01;62.20;94940.09;106659;1275;24259;-79
2024/02/07 10:31:00;;;;;;;13.50;8.30;;;;;;;8.96;62.45;94935.13;106698;1275;24373;-78
2024/02/07 10:33:36;;;;;;;16.50;9.50;;;;;;;8.90;62.45;94920.71;106669;1275;25416;-78
2024/02/07 10:36:08;;;;;;;16.50;10.00;;;;;;;8.90;62.87;94915.43;106687;1275;22730;-78
2024/02/07 10:38:36;;;;;;;16.60;8.60;;;;;;;9.12;62.53;94909.66;106581;1275;25766;-78
2024/02/07 10:41:05;;;;;;;13.60;8.30;;;;;;;9.28;61.76;94914.73;106601;1275;22521;-78
2024/02/07 10:43:35;;;;;;;11.70;7.10;;;;;;;9.53;61.36;94908.30;106654;1275;22754;-80
2024/02/07 10:46:13;;;;;;;14.10;7.90;;;;;;;9.69;60.20;94907.54;106664;1275;22539;-78
2024/02/07 10:48:43;;;;;;;12.00;6.30;;;;;;;9.55;60.24;94905.45;106711;1275;25383;-78
2024/02/07 10:51:12;;;;;;;13.30;7.60;;;;;;;9.56;60.45;94893.31;106647;1275;22522;-77
2024/02/07 10:53:40;;;;;;;16.50;12.90;;;;;;;9.58;60.64;94888.00;106620;1275;22757;-78
2024/02/07 10:56:13;;;;;;;17.20;8.70;;;;;;;9.61;60.50;94890.70;106629;1275;23171;-78
2024/02/07 10:58:42;;;;;;;;;;;;;;;9.96;60.29;94889.24;106788;1275;24222;-77
2024/02/07 11:01:12;;;;;;;12.90;7.40;;;;;;;10.43;59.05;94883.71;106773;1275;25285;-78
2024/02/07 11:03:41;;;;;;;14.10;7.60;;;;;;;10.83;57.27;94883.21;106756;1275;24505;-78
2024/02/07 11:06:10;;;;;;;11.90;7.40;;;;;;;11.14;56.49;94890.16;106737;1275;24340;-80
2024/02/07 11:08:40;;;;;;;11.30;7.10;;;;;;;11.29;54.61;94893.20;106617;1275;25266;-79
2024/02/07 11:11:09;;;;;;;10.70;6.80;;;;;;;11.13;55.00;94886.33;106650;1275;22550;-78
2024/02/07 11:13:38;;;;;;;11.90;6.70;;;;;;;11.34;55.21;94879.15;106656;1275;22531;-79
2024/02/07 11:16:08;;;;;;;10.00;6.90;;;;;;;11.57;54.17;94865.15;106580;1275;22565;-78
2024/02/07 11:18:37;;;;;;;10.00;7.20;;;;;;;11.93;53.75;94863.08;106792;1275;23888;-80
2024/02/07 11:21:07;;;;;;;13.30;7.20;;;;;;;11.98;52.51;94859.87;106783;1275;22819;-78
2024/02/07 11:23:37;;;;;;;10.60;7.10;;;;;;;12.23;52.43;94852.83;106675;1275;22526;-80
2024/02/07 11:26:07;;;;;;;12.60;6.90;;;;;;;12.38;52.54;94844.14;106640;1275;25678;-78
2024/02/07 11:28:37;;;;;;;11.30;6.80;;;;;;;12.53;51.61;94843.94;106589;1275;22563;-77
2024/02/07 11:31:07;;;;;;;9.80;6.90;;;;;;;13.05;51.09;94832.89;106809;1253;22623;-77
2024/02/07 11:33:40;;;;;;;13.50;7.00;;;;;;;13.53;49.58;94835.70;106891;1275;25344;-78
2024/02/07 11:36:17;;;;;;;10.10;6.00;;;;;;;13.67;47.80;94834.23;106628;1275;22641;-78
2024/02/07 11:38:55;;;;;;;10.80;5.80;;;;;;;13.68;47.38;94835.09;106720;1275;23226;-83
2024/02/07 11:41:24;;;;;;;10.40;5.90;;;;;;;13.65;46.96;94830.23;106649;1275;25435;-79
2024/02/07 11:44:02;;;;;;;7.60;5.60;;;;;;;14.04;47.05;94819.55;106647;1275;24231;-79
2024/02/07 11:46:30;;;;;;;10.40;6.80;;;;;;;14.53;47.19;94819.11;106715;1275;22526;-79
2024/02/07 11:49:01;;;;;;;8.70;6.40;;;;;;;14.94;47.61;94817.00;106821;1275;22541;-79
2024/02/07 11:51:33;;;;;;;11.20;7.30;;;;;;;15.38;44.79;94805.67;106732;1275;24078;-79
2024/02/07 11:54:05;;;;;;;14.60;8.50;;;;;;;15.60;44.37;94794.10;106662;1275;22654;-79
2024/02/07 11:56:34;;;;;;;8.90;6.50;;;;;;;15.95;43.35;94788.73;106645;1275;22526;-80
2024/02/07 11:59:04;;;;;;;15.80;5.80;;;;;;;16.05;43.32;94786.80;106754;1275;24036;-78
2024/02/07 12:01:32;;;;;;;7.70;5.90;;;;;;;16.07;42.73;94783.69;106688;1275;25505;-80
2024/02/07 12:04:03;;;;;;;11.60;6.10;;;;;;;16.32;42.18;94784.33;106718;1275;22527;-78
2024/02/07 12:06:33;;;;;;;10.80;6.20;;;;;;;16.31;41.60;94780.48;106699;1275;22598;-79
2024/02/07 12:09:01;;;;;;;10.40;5.40;;;;;;;16.59;41.96;94775.90;106642;1275;22660;-78
2024/02/07 12:11:30;;;;;;;9.50;6.20;;;;;;;16.93;40.11;94775.45;106635;1275;23261;-79
2024/02/07 12:13:59;;;;;;;8.10;5.40;;;;;;;17.12;39.88;94758.94;106772;1275;25513;-79
2024/02/07 12:16:28;;;;;;;22.40;11.80;;;;;;;17.63;39.78;94761.48;106663;1275;24380;-79
2024/02/07 12:18:56;;;;;;;14.70;9.70;;;;;;;17.94;38.96;94758.25;106692;1275;22526;-79
2024/02/07 12:21:25;;;;;;;8.60;5.90;;;;;;;17.55;38.31;94761.79;106707;1275;22646;-79
2024/02/07 12:23:54;;;;;;;7.00;5.60;;;;;;;17.44;38.60;94752.80;106619;1275;25486;-79
2024/02/07 12:26:24;;;;;;;12.70;6.80;;;;;;;17.63;39.25;94743.66;106650;1275;23290;-79
2024/02/07 12:28:56;;;;;;;8.70;6.00;;;;;;;17.71;37.75;94745.86;106716;1275;22530;-80
2024/02/07 12:31:25;;;;;;;10.40;5.40;;;;;;;17.34;37.94;94745.05;106669;1275;25362;-79
2024/02/07 12:33:53;;;;;;;7.50;6.10;;;;;;;17.05;38.02;94743.15;106807;1275;24255;-80
2024/02/07 12:36:22;;;;;;;9.40;5.50;;;;;;;16.75;38.47;94737.56;106681;1275;24505;-80
2024/02/07 12:38:50;;;;;;;8.70;6.00;;;;;;;16.46;38.41;94741.49;106649;1275;22654;-79
2024/02/07 12:41:19;;;;;;;9.70;6.00;;;;;;;16.13;39.93;94732.98;106699;1275;25474;-79
2024/02/07 12:43:47;;;;;;;8.40;5.90;;;;;;;16.10;40.08;94734.21;106672;1275;22766;-79